sensor_id;sensor_type;location;lat;lon;timestamp;pressure;altitude;pressure_sealevel;temperature;humidity
64294;BME280;50636;45.596;5.258;2022-10-31T00:01:28;99128.91;;;16.60;72.76
64294;BME280;50636;45.596;5.258;2022-10-31T00:03:54;99118.88;;;16.62;72.81
64294;BME280;50636;45.596;5.258;2022-10-31T00:06:21;99119.91;;;16.61;73.17
64294;BME280;50636;45.596;5.258;2022-10-31T00:08:51;99117.38;;;16.66;73.13
64294;BME280;50636;45.596;5.258;2022-10-31T00:11:17;99125.22;;;16.73;73.52
64294;BME280;50636;45.596;5.258;2022-10-31T00:13:42;99120.97;;;16.95;73.39
64294;BME280;50636;45.596;5.258;2022-10-31T00:16:22;99115.91;;;16.94;72.19
64294;BME280;50636;45.596;5.258;2022-10-31T00:18:53;99113.03;;;16.84;72.34
64294;BME280;50636;45.596;5.258;2022-10-31T00:21:20;99104.63;;;16.87;72.94
64294;BME280;50636;45.596;5.258;2022-10-31T00:23:46;99106.47;;;16.86;72.29
64294;BME280;50636;45.596;5.258;2022-10-31T00:26:11;99110.16;;;16.85;72.52
64294;BME280;50636;45.596;5.258;2022-10-31T00:28:38;99118.31;;;16.95;72.93
64294;BME280;50636;45.596;5.258;2022-10-31T00:31:07;99112.41;;;17.41;71.76
64294;BME280;50636;45.596;5.258;2022-10-31T00:33:35;99114.28;;;17.69;70.52
64294;BME280;50636;45.596;5.258;2022-10-31T00:36:02;99116.56;;;17.77;70.07
64294;BME280;50636;45.596;5.258;2022-10-31T00:38:28;99111.72;;;17.86;69.19
64294;BME280;50636;45.596;5.258;2022-10-31T00:40:54;99111.31;;;17.94;68.27
64294;BME280;50636;45.596;5.258;2022-10-31T00:43:19;99102.56;;;17.82;67.92
64294;BME280;50636;45.596;5.258;2022-10-31T00:45:45;99112.44;;;17.69;68.17
64294;BME280;50636;45.596;5.258;2022-10-31T00:48:11;99108.19;;;17.56;68.72
64294;BME280;50636;45.596;5.258;2022-10-31T00:50:37;99102.78;;;17.51;68.47
64294;BME280;50636;45.596;5.258;2022-10-31T00:53:03;99104.00;;;17.32;68.67
64294;BME280;50636;45.596;5.258;2022-10-31T00:55:29;99093.50;;;17.25;69.30
64294;BME280;50636;45.596;5.258;2022-10-31T00:57:54;99093.31;;;17.15;69.62
64294;BME280;50636;45.596;5.258;2022-10-31T01:00:20;99093.44;;;17.08;70.15
64294;BME280;50636;45.596;5.258;2022-10-31T01:02:46;99087.22;;;16.91;70.81
64294;BME280;50636;45.596;5.258;2022-10-31T01:05:12;99087.41;;;16.77;71.11
64294;BME280;50636;45.596;5.258;2022-10-31T01:07:39;99089.84;;;16.79;71.63
64294;BME280;50636;45.596;5.258;2022-10-31T01:10:06;99088.72;;;17.10;71.85
64294;BME280;50636;45.596;5.258;2022-10-31T01:12:47;99083.16;;;17.52;70.82
64294;BME280;50636;45.596;5.258;2022-10-31T01:15:15;99087.19;;;17.67;70.32
64294;BME280;50636;45.596;5.258;2022-10-31T01:17:41;99088.78;;;17.96;69.69
64294;BME280;50636;45.596;5.258;2022-10-31T01:20:08;99088.44;;;18.22;68.81
64294;BME280;50636;45.596;5.258;2022-10-31T01:22:35;99089.25;;;18.56;68.22
64294;BME280;50636;45.596;5.258;2022-10-31T01:25:00;99085.63;;;18.79;66.20
64294;BME280;50636;45.596;5.258;2022-10-31T01:27:26;99085.06;;;18.60;66.33
64294;BME280;50636;45.596;5.258;2022-10-31T01:29:52;99076.50;;;18.75;66.30
64294;BME280;50636;45.596;5.258;2022-10-31T01:32:17;99084.78;;;18.79;65.59
64294;BME280;50636;45.596;5.258;2022-10-31T01:34:43;99078.13;;;18.59;65.21
64294;BME280;50636;45.596;5.258;2022-10-31T01:37:09;99080.97;;;18.35;65.83
64294;BME280;50636;45.596;5.258;2022-10-31T01:39:34;99077.41;;;18.30;65.74
64294;BME280;50636;45.596;5.258;2022-10-31T01:42:00;99084.09;;;18.15;66.20
64294;BME280;50636;45.596;5.258;2022-10-31T01:47:13;99082.31;;;18.72;67.45
64294;BME280;50636;45.596;5.258;2022-10-31T01:50:12;99073.19;;;19.02;65.71
64294;BME280;50636;45.596;5.258;2022-10-31T01:52:43;99072.19;;;18.86;65.38
64294;BME280;50636;45.596;5.258;2022-10-31T01:57:45;99078.69;;;19.17;66.06
64294;BME280;50636;45.596;5.258;2022-10-31T02:00:12;99071.69;;;19.11;65.15
64294;BME280;50636;45.596;5.258;2022-10-31T02:02:39;99072.91;;;19.03;65.43
64294;BME280;50636;45.596;5.258;2022-10-31T02:05:09;99073.88;;;19.14;66.30
64294;BME280;50636;45.596;5.258;2022-10-31T02:07:44;99074.72;;;19.42;65.04
64294;BME280;50636;45.596;5.258;2022-10-31T02:10:10;99077.00;;;19.11;65.10
64294;BME280;50636;45.596;5.258;2022-10-31T02:12:37;99067.56;;;18.98;66.52
64294;BME280;50636;45.596;5.258;2022-10-31T02:15:04;99065.63;;;19.38;66.65
64294;BME280;50636;45.596;5.258;2022-10-31T02:17:30;99065.31;;;19.78;65.18
64294;BME280;50636;45.596;5.258;2022-10-31T02:20:40;99062.44;;;19.85;64.78
64294;BME280;50636;45.596;5.258;2022-10-31T02:31:31;99075.34;;;19.49;64.56
64294;BME280;50636;45.596;5.258;2022-10-31T02:37:01;99077.06;;;18.94;65.96
64294;BME280;50636;45.596;5.258;2022-10-31T02:39:37;99078.84;;;18.88;66.44
64294;BME280;50636;45.596;5.258;2022-10-31T02:42:14;99087.03;;;19.04;66.18
64294;BME280;50636;45.596;5.258;2022-10-31T02:44:52;99073.00;;;19.08;66.75
64294;BME280;50636;45.596;5.258;2022-10-31T02:47:28;99069.78;;;19.28;65.44
64294;BME280;50636;45.596;5.258;2022-10-31T02:50:20;99074.03;;;19.07;65.57
64294;BME280;50636;45.596;5.258;2022-10-31T02:52:52;99058.44;;;18.77;66.52
64294;BME280;50636;45.596;5.258;2022-10-31T02:57:57;99065.72;;;18.31;68.06
64294;BME280;50636;45.596;5.258;2022-10-31T03:00:25;99059.44;;;18.20;68.56
64294;BME280;50636;45.596;5.258;2022-10-31T03:02:53;99056.06;;;18.25;68.99
64294;BME280;50636;45.596;5.258;2022-10-31T03:08:30;99060.00;;;18.22;69.33
64294;BME280;50636;45.596;5.258;2022-10-31T03:11:00;99058.09;;;18.17;68.60
64294;BME280;50636;45.596;5.258;2022-10-31T03:16:28;99058.88;;;18.01;69.54
64294;BME280;50636;45.596;5.258;2022-10-31T03:19:33;99052.28;;;18.04;69.02
64294;BME280;50636;45.596;5.258;2022-10-31T03:22:10;99047.94;;;17.98;68.84
64294;BME280;50636;45.596;5.258;2022-10-31T03:24:40;99047.28;;;18.07;68.96
64294;BME280;50636;45.596;5.258;2022-10-31T03:27:10;99040.13;;;18.25;68.49
64294;BME280;50636;45.596;5.258;2022-10-31T03:29:40;99057.34;;;18.22;68.35
64294;BME280;50636;45.596;5.258;2022-10-31T03:35:06;99043.44;;;18.15;68.74
64294;BME280;50636;45.596;5.258;2022-10-31T03:37:35;99051.31;;;18.10;68.67
64294;BME280;50636;45.596;5.258;2022-10-31T03:40:03;99044.06;;;18.05;69.18
64294;BME280;50636;45.596;5.258;2022-10-31T03:42:33;99055.50;;;18.06;69.25
64294;BME280;50636;45.596;5.258;2022-10-31T03:45:06;99062.56;;;18.00;69.42
64294;BME280;50636;45.596;5.258;2022-10-31T03:47:36;99049.38;;;18.05;69.64
64294;BME280;50636;45.596;5.258;2022-10-31T03:50:05;99052.59;;;18.07;69.33
64294;BME280;50636;45.596;5.258;2022-10-31T03:57:45;99043.09;;;18.28;67.97
64294;BME280;50636;45.596;5.258;2022-10-31T04:00:16;99045.28;;;18.31;67.72
64294;BME280;50636;45.596;5.258;2022-10-31T04:02:50;99049.88;;;18.36;67.38
64294;BME280;50636;45.596;5.258;2022-10-31T04:05:20;99056.47;;;18.16;67.63
64294;BME280;50636;45.596;5.258;2022-10-31T04:07:51;99056.28;;;18.06;68.12
64294;BME280;50636;45.596;5.258;2022-10-31T04:10:20;99051.16;;;18.00;68.65
64294;BME280;50636;45.596;5.258;2022-10-31T04:12:52;99064.66;;;17.98;68.61
64294;BME280;50636;45.596;5.258;2022-10-31T04:15:20;99063.84;;;17.98;68.66
64294;BME280;50636;45.596;5.258;2022-10-31T04:17:47;99072.06;;;17.96;68.69
64294;BME280;50636;45.596;5.258;2022-10-31T04:20:17;99061.38;;;17.91;69.00
64294;BME280;50636;45.596;5.258;2022-10-31T04:22:43;99059.75;;;17.90;69.15
64294;BME280;50636;45.596;5.258;2022-10-31T04:25:09;99055.38;;;17.84;69.17
64294;BME280;50636;45.596;5.258;2022-10-31T04:27:34;99046.81;;;17.82;69.32
64294;BME280;50636;45.596;5.258;2022-10-31T04:30:00;99046.03;;;17.81;69.53
64294;BME280;50636;45.596;5.258;2022-10-31T04:32:26;99045.19;;;17.81;69.51
64294;BME280;50636;45.596;5.258;2022-10-31T04:34:51;99036.44;;;17.80;69.65
64294;BME280;50636;45.596;5.258;2022-10-31T04:37:17;99042.09;;;17.84;69.72
64294;BME280;50636;45.596;5.258;2022-10-31T04:39:43;99029.50;;;17.91;69.66
64294;BME280;50636;45.596;5.258;2022-10-31T04:42:08;99034.16;;;18.01;68.90
64294;BME280;50636;45.596;5.258;2022-10-31T04:44:34;99032.22;;;17.96;68.89
64294;BME280;50636;45.596;5.258;2022-10-31T04:46:59;99034.25;;;17.89;69.28
64294;BME280;50636;45.596;5.258;2022-10-31T04:49:28;99030.31;;;17.80;69.26
64294;BME280;50636;45.596;5.258;2022-10-31T04:51:53;99037.72;;;17.77;69.59
64294;BME280;50636;45.596;5.258;2022-10-31T04:54:19;99029.25;;;17.81;69.56
64294;BME280;50636;45.596;5.258;2022-10-31T04:56:45;99033.53;;;17.82;69.53
64294;BME280;50636;45.596;5.258;2022-10-31T04:59:10;99033.91;;;17.85;69.36
64294;BME280;50636;45.596;5.258;2022-10-31T05:01:36;99030.19;;;17.86;69.20
64294;BME280;50636;45.596;5.258;2022-10-31T05:04:02;99028.84;;;17.84;69.15
64294;BME280;50636;45.596;5.258;2022-10-31T05:06:27;99033.22;;;17.78;69.46
64294;BME280;50636;45.596;5.258;2022-10-31T05:08:53;99020.50;;;17.80;70.00
64294;BME280;50636;45.596;5.258;2022-10-31T05:11:18;99027.47;;;17.98;68.99
64294;BME280;50636;45.596;5.258;2022-10-31T05:13:44;99015.72;;;18.11;68.20
64294;BME280;50636;45.596;5.258;2022-10-31T05:16:09;99011.25;;;18.11;68.45
64294;BME280;50636;45.596;5.258;2022-10-31T05:18:35;99005.19;;;18.16;67.86
64294;BME280;50636;45.596;5.258;2022-10-31T05:21:00;99010.28;;;18.17;68.06
64294;BME280;50636;45.596;5.258;2022-10-31T05:23:26;98994.97;;;18.25;67.71
64294;BME280;50636;45.596;5.258;2022-10-31T05:25:52;98991.50;;;18.41;67.23
64294;BME280;50636;45.596;5.258;2022-10-31T05:28:17;98974.50;;;18.42;67.47
64294;BME280;50636;45.596;5.258;2022-10-31T05:30:43;98972.09;;;18.63;66.71
64294;BME280;50636;45.596;5.258;2022-10-31T05:33:09;98984.25;;;18.75;65.70
64294;BME280;50636;45.596;5.258;2022-10-31T05:35:34;98979.81;;;18.81;66.15
64294;BME280;50636;45.596;5.258;2022-10-31T05:38:00;98981.81;;;18.91;65.66
64294;BME280;50636;45.596;5.258;2022-10-31T05:40:26;98993.38;;;18.80;65.59
64294;BME280;50636;45.596;5.258;2022-10-31T05:42:53;98989.25;;;18.72;65.78
64294;BME280;50636;45.596;5.258;2022-10-31T05:45:21;98969.91;;;18.76;65.84
64294;BME280;50636;45.596;5.258;2022-10-31T05:48:00;98967.47;;;18.75;66.27
64294;BME280;50636;45.596;5.258;2022-10-31T05:50:28;98970.56;;;18.67;66.19
64294;BME280;50636;45.596;5.258;2022-10-31T05:53:00;98983.53;;;18.63;66.42
64294;BME280;50636;45.596;5.258;2022-10-31T05:55:26;98986.31;;;18.51;66.68
64294;BME280;50636;45.596;5.258;2022-10-31T05:57:53;98991.31;;;18.48;66.65
64294;BME280;50636;45.596;5.258;2022-10-31T06:00:20;98986.00;;;18.48;66.14
64294;BME280;50636;45.596;5.258;2022-10-31T06:02:47;98986.66;;;18.38;66.95
64294;BME280;50636;45.596;5.258;2022-10-31T06:05:13;98987.81;;;18.25;66.89
64294;BME280;50636;45.596;5.258;2022-10-31T06:07:38;98981.63;;;18.20;67.62
64294;BME280;50636;45.596;5.258;2022-10-31T06:10:07;98979.19;;;18.18;67.76
64294;BME280;50636;45.596;5.258;2022-10-31T06:12:34;98981.63;;;18.20;67.64
64294;BME280;50636;45.596;5.258;2022-10-31T06:15:07;98980.72;;;18.14;68.02
64294;BME280;50636;45.596;5.258;2022-10-31T06:17:36;98982.44;;;18.03;68.00
64294;BME280;50636;45.596;5.258;2022-10-31T06:20:03;98989.75;;;18.13;67.46
64294;BME280;50636;45.596;5.258;2022-10-31T06:22:29;98983.34;;;18.31;66.85
64294;BME280;50636;45.596;5.258;2022-10-31T06:24:55;98986.84;;;18.31;66.79
64294;BME280;50636;45.596;5.258;2022-10-31T06:27:20;98982.78;;;18.29;66.56
64294;BME280;50636;45.596;5.258;2022-10-31T06:29:46;98978.97;;;18.20;67.04
64294;BME280;50636;45.596;5.258;2022-10-31T06:32:12;98974.63;;;18.13;67.26
64294;BME280;50636;45.596;5.258;2022-10-31T06:34:39;98970.91;;;18.14;67.39
64294;BME280;50636;45.596;5.258;2022-10-31T06:37:08;98983.16;;;18.15;66.89
64294;BME280;50636;45.596;5.258;2022-10-31T06:39:34;98979.00;;;18.25;66.90
64294;BME280;50636;45.596;5.258;2022-10-31T06:42:00;98969.97;;;18.43;66.24
64294;BME280;50636;45.596;5.258;2022-10-31T06:44:26;98968.53;;;18.52;65.67
64294;BME280;50636;45.596;5.258;2022-10-31T06:46:51;98972.91;;;18.41;65.95
64294;BME280;50636;45.596;5.258;2022-10-31T06:49:17;98977.19;;;18.25;66.50
64294;BME280;50636;45.596;5.258;2022-10-31T06:51:43;98977.47;;;18.29;66.24
64294;BME280;50636;45.596;5.258;2022-10-31T06:54:08;98977.56;;;18.34;66.03
64294;BME280;50636;45.596;5.258;2022-10-31T06:56:34;98985.22;;;18.47;65.35
64294;BME280;50636;45.596;5.258;2022-10-31T06:59:00;98987.38;;;18.50;65.29
64294;BME280;50636;45.596;5.258;2022-10-31T07:01:26;98984.78;;;18.55;64.99
64294;BME280;50636;45.596;5.258;2022-10-31T07:03:51;98988.16;;;18.51;64.75
64294;BME280;50636;45.596;5.258;2022-10-31T07:06:17;98983.53;;;18.41;65.50
64294;BME280;50636;45.596;5.258;2022-10-31T07:08:42;98971.53;;;18.77;65.14
64294;BME280;50636;45.596;5.258;2022-10-31T07:11:08;98987.13;;;19.13;63.88
64294;BME280;50636;45.596;5.258;2022-10-31T07:13:34;98978.72;;;19.48;62.25
64294;BME280;50636;45.596;5.258;2022-10-31T07:16:02;98989.84;;;19.45;62.45
64294;BME280;50636;45.596;5.258;2022-10-31T07:18:28;99001.47;;;19.34;62.54
64294;BME280;50636;45.596;5.258;2022-10-31T07:20:54;98996.94;;;19.34;63.71
64294;BME280;50636;45.596;5.258;2022-10-31T07:23:20;98998.88;;;19.66;62.89
64294;BME280;50636;45.596;5.258;2022-10-31T07:25:45;99008.03;;;19.53;62.82
64294;BME280;50636;45.596;5.258;2022-10-31T07:28:11;99002.38;;;19.45;62.17
64294;BME280;50636;45.596;5.258;2022-10-31T07:30:37;99009.56;;;19.44;62.57
64294;BME280;50636;45.596;5.258;2022-10-31T07:33:04;99011.00;;;19.57;61.88
64294;BME280;50636;45.596;5.258;2022-10-31T07:35:30;99015.09;;;19.65;61.57
64294;BME280;50636;45.596;5.258;2022-10-31T07:37:57;99011.44;;;19.71;60.89
64294;BME280;50636;45.596;5.258;2022-10-31T07:40:23;99020.41;;;19.65;61.01
64294;BME280;50636;45.596;5.258;2022-10-31T07:42:51;99015.88;;;19.65;61.20
64294;BME280;50636;45.596;5.258;2022-10-31T07:45:19;99019.19;;;19.72;61.01
64294;BME280;50636;45.596;5.258;2022-10-31T07:47:51;99019.59;;;19.86;60.23
64294;BME280;50636;45.596;5.258;2022-10-31T07:50:23;99005.59;;;20.01;59.85
64294;BME280;50636;45.596;5.258;2022-10-31T07:52:58;99013.97;;;20.20;59.42
64294;BME280;50636;45.596;5.258;2022-10-31T07:55:24;99001.00;;;20.34;58.31
64294;BME280;50636;45.596;5.258;2022-10-31T07:58:12;98998.81;;;20.21;58.92
64294;BME280;50636;45.596;5.258;2022-10-31T08:00:41;99008.88;;;20.13;59.40
64294;BME280;50636;45.596;5.258;2022-10-31T08:03:09;99000.31;;;20.11;59.40
64294;BME280;50636;45.596;5.258;2022-10-31T08:05:36;99011.22;;;20.10;59.54
64294;BME280;50636;45.596;5.258;2022-10-31T08:08:03;99010.44;;;20.09;59.61
64294;BME280;50636;45.596;5.258;2022-10-31T08:10:30;99008.03;;;20.08;59.53
64294;BME280;50636;45.596;5.258;2022-10-31T08:13:03;99022.97;;;20.09;59.45
64294;BME280;50636;45.596;5.258;2022-10-31T08:15:29;99013.31;;;20.03;59.72
64294;BME280;50636;45.596;5.258;2022-10-31T08:17:55;99010.59;;;19.98;59.55
64294;BME280;50636;45.596;5.258;2022-10-31T08:20:21;99003.94;;;19.95;59.55
64294;BME280;50636;45.596;5.258;2022-10-31T08:23:08;99014.03;;;19.93;59.69
64294;BME280;50636;45.596;5.258;2022-10-31T08:25:35;99017.75;;;19.92;60.16
64294;BME280;50636;45.596;5.258;2022-10-31T08:28:01;99014.84;;;19.93;59.97
64294;BME280;50636;45.596;5.258;2022-10-31T08:30:31;99005.03;;;19.99;59.74
64294;BME280;50636;45.596;5.258;2022-10-31T08:33:20;99012.69;;;19.90;60.07
64294;BME280;50636;45.596;5.258;2022-10-31T08:35:45;99009.25;;;19.95;59.75
64294;BME280;50636;45.596;5.258;2022-10-31T08:38:12;99003.44;;;19.98;59.75
64294;BME280;50636;45.596;5.258;2022-10-31T08:40:38;99002.16;;;20.06;59.65
64294;BME280;50636;45.596;5.258;2022-10-31T08:43:06;99014.03;;;20.25;59.11
64294;BME280;50636;45.596;5.258;2022-10-31T08:45:33;99013.06;;;20.42;58.25
64294;BME280;50636;45.596;5.258;2022-10-31T08:48:01;99008.06;;;20.50;58.16
64294;BME280;50636;45.596;5.258;2022-10-31T08:50:28;99010.59;;;20.67;57.83
64294;BME280;50636;45.596;5.258;2022-10-31T08:53:03;99004.56;;;20.87;57.13
64294;BME280;50636;45.596;5.258;2022-10-31T08:55:29;99005.44;;;21.08;57.20
64294;BME280;50636;45.596;5.258;2022-10-31T08:57:58;99017.28;;;21.33;56.16
64294;BME280;50636;45.596;5.258;2022-10-31T09:00:24;99011.72;;;21.45;55.63
64294;BME280;50636;45.596;5.258;2022-10-31T09:03:03;99005.38;;;21.77;55.62
64294;BME280;50636;45.596;5.258;2022-10-31T09:05:30;99000.00;;;22.23;54.77
64294;BME280;50636;45.596;5.258;2022-10-31T09:08:00;99006.28;;;22.99;51.90
64294;BME280;50636;45.596;5.258;2022-10-31T09:10:27;99003.88;;;23.52;50.45
64294;BME280;50636;45.596;5.258;2022-10-31T09:13:00;99025.25;;;23.62;50.64
64294;BME280;50636;45.596;5.258;2022-10-31T09:15:27;99011.72;;;23.88;50.39
64294;BME280;50636;45.596;5.258;2022-10-31T09:17:54;98995.09;;;24.20;49.55
64294;BME280;50636;45.596;5.258;2022-10-31T09:20:20;98997.09;;;24.04;48.75
64294;BME280;50636;45.596;5.258;2022-10-31T09:22:46;99015.00;;;23.80;49.46
64294;BME280;50636;45.596;5.258;2022-10-31T09:25:12;98996.03;;;23.66;50.01
64294;BME280;50636;45.596;5.258;2022-10-31T09:27:38;99007.59;;;23.56;49.83
64294;BME280;50636;45.596;5.258;2022-10-31T09:30:05;98982.88;;;23.69;49.94
64294;BME280;50636;45.596;5.258;2022-10-31T09:32:31;99010.59;;;23.55;49.94
64294;BME280;50636;45.596;5.258;2022-10-31T09:34:57;98976.47;;;23.65;50.25
64294;BME280;50636;45.596;5.258;2022-10-31T09:37:25;98977.25;;;24.05;49.57
64294;BME280;50636;45.596;5.258;2022-10-31T09:39:51;98974.94;;;24.52;47.81
64294;BME280;50636;45.596;5.258;2022-10-31T09:51:13;98960.63;;;25.05;45.67
64294;BME280;50636;45.596;5.258;2022-10-31T09:56:22;98971.34;;;25.29;45.92
64294;BME280;50636;45.596;5.258;2022-10-31T09:58:52;98966.66;;;25.73;44.28
64294;BME280;50636;45.596;5.258;2022-10-31T10:04:49;98966.28;;;25.79;44.34
64294;BME280;50636;45.596;5.258;2022-10-31T10:06:51;98954.63;;;25.51;43.80
64294;BME280;50636;45.596;5.258;2022-10-31T10:09:20;98951.78;;;25.04;44.95
64294;BME280;50636;45.596;5.258;2022-10-31T10:12:13;98964.88;;;25.30;45.05
64294;BME280;50636;45.596;5.258;2022-10-31T10:18:25;98977.88;;;25.42;44.91
64294;BME280;50636;45.596;5.258;2022-10-31T10:23:52;98963.00;;;25.30;44.43
64294;BME280;50636;45.596;5.258;2022-10-31T10:26:30;98963.50;;;25.33;45.21
64294;BME280;50636;45.596;5.258;2022-10-31T10:29:03;98952.72;;;25.70;43.29
64294;BME280;50636;45.596;5.258;2022-10-31T10:31:38;98939.09;;;26.00;42.68
64294;BME280;50636;45.596;5.258;2022-10-31T10:34:20;98967.66;;;25.96;42.56
64294;BME280;50636;45.596;5.258;2022-10-31T10:41:57;98936.47;;;25.95;42.89
64294;BME280;50636;45.596;5.258;2022-10-31T10:44:47;98932.81;;;26.04;42.29
64294;BME280;50636;45.596;5.258;2022-10-31T10:47:57;98926.25;;;26.24;42.06
64294;BME280;50636;45.596;5.258;2022-10-31T10:50:39;98917.97;;;26.76;41.13
64294;BME280;50636;45.596;5.258;2022-10-31T10:55:43;98913.13;;;26.50;40.60
64294;BME280;50636;45.596;5.258;2022-10-31T10:58:10;98922.69;;;26.57;40.72
64294;BME280;50636;45.596;5.258;2022-10-31T11:00:47;98903.34;;;26.55;40.63
64294;BME280;50636;45.596;5.258;2022-10-31T11:03:13;98919.50;;;26.41;40.59
64294;BME280;50636;45.596;5.258;2022-10-31T11:05:56;98920.84;;;26.94;39.62
64294;BME280;50636;45.596;5.258;2022-10-31T11:08:34;98902.16;;;27.11;39.40
64294;BME280;50636;45.596;5.258;2022-10-31T11:11:03;98903.00;;;27.34;38.34
64294;BME280;50636;45.596;5.258;2022-10-31T11:13:31;98900.47;;;27.38;37.44
64294;BME280;50636;45.596;5.258;2022-10-31T11:16:11;98900.97;;;27.40;37.70
64294;BME280;50636;45.596;5.258;2022-10-31T11:18:51;98900.88;;;27.45;37.78
64294;BME280;50636;45.596;5.258;2022-10-31T11:21:25;98895.34;;;27.14;38.62
64294;BME280;50636;45.596;5.258;2022-10-31T11:26:40;98880.59;;;26.88;38.41
64294;BME280;50636;45.596;5.258;2022-10-31T11:29:24;98877.25;;;26.92;38.40
64294;BME280;50636;45.596;5.258;2022-10-31T11:31:52;98861.72;;;27.25;38.17
64294;BME280;50636;45.596;5.258;2022-10-31T11:34:34;98860.66;;;27.57;37.17
64294;BME280;50636;45.596;5.258;2022-10-31T11:37:27;98857.28;;;27.52;37.48
64294;BME280;50636;45.596;5.258;2022-10-31T11:39:55;98861.66;;;27.02;38.59
64294;BME280;50636;45.596;5.258;2022-10-31T11:42:26;98849.09;;;26.98;37.98
64294;BME280;50636;45.596;5.258;2022-10-31T11:44:54;98855.91;;;26.59;38.70
64294;BME280;50636;45.596;5.258;2022-10-31T11:47:27;98850.84;;;26.02;40.78
64294;BME280;50636;45.596;5.258;2022-10-31T11:49:55;98849.03;;;25.97;40.26
64294;BME280;50636;45.596;5.258;2022-10-31T11:52:28;98863.72;;;25.72;40.79
64294;BME280;50636;45.596;5.258;2022-10-31T11:57:51;98839.25;;;25.03;42.04
64294;BME280;50636;45.596;5.258;2022-10-31T12:00:27;98853.50;;;24.41;43.07
64294;BME280;50636;45.596;5.258;2022-10-31T12:06:09;98845.09;;;24.72;43.12
64294;BME280;50636;45.596;5.258;2022-10-31T12:08:38;98835.56;;;24.99;42.46
64294;BME280;50636;45.596;5.258;2022-10-31T12:13:59;98842.34;;;24.77;42.29
64294;BME280;50636;45.596;5.258;2022-10-31T12:16:48;98851.38;;;24.38;43.41
64294;BME280;50636;45.596;5.258;2022-10-31T12:22:18;98855.75;;;24.77;42.60
64294;BME280;50636;45.596;5.258;2022-10-31T12:27:51;98868.38;;;25.34;42.38
64294;BME280;50636;45.596;5.258;2022-10-31T12:30:26;98858.84;;;25.74;41.06
64294;BME280;50636;45.596;5.258;2022-10-31T12:35:46;98848.06;;;25.60;41.29
64294;BME280;50636;45.596;5.258;2022-10-31T12:41:28;98839.63;;;26.64;39.24
64294;BME280;50636;45.596;5.258;2022-10-31T12:53:19;98836.81;;;26.83;37.99
64294;BME280;50636;45.596;5.258;2022-10-31T13:00:48;98834.19;;;26.14;39.03
64294;BME280;50636;45.596;5.258;2022-10-31T13:03:36;98841.25;;;25.96;39.58
64294;BME280;50636;45.596;5.258;2022-10-31T13:06:08;98832.94;;;25.64;40.23
64294;BME280;50636;45.596;5.258;2022-10-31T13:08:40;98829.13;;;25.51;40.20
64294;BME280;50636;45.596;5.258;2022-10-31T13:13:44;98823.91;;;25.41;40.19
64294;BME280;50636;45.596;5.258;2022-10-31T13:18:49;98804.91;;;25.98;38.57
64294;BME280;50636;45.596;5.258;2022-10-31T13:21:33;98800.91;;;26.09;37.55
64294;BME280;50636;45.596;5.258;2022-10-31T13:24:04;98801.28;;;25.75;37.80
64294;BME280;50636;45.596;5.258;2022-10-31T13:26:50;98808.13;;;25.67;38.87
64294;BME280;50636;45.596;5.258;2022-10-31T13:30:01;98795.34;;;26.06;38.63
64294;BME280;50636;45.596;5.258;2022-10-31T13:32:27;98788.22;;;26.24;37.94
64294;BME280;50636;45.596;5.258;2022-10-31T13:34:56;98782.56;;;26.11;36.56
64294;BME280;50636;45.596;5.258;2022-10-31T13:37:44;98762.25;;;25.64;37.35
64294;BME280;50636;45.596;5.258;2022-10-31T13:43:41;98785.22;;;24.90;39.25
64294;BME280;50636;45.596;5.258;2022-10-31T13:45:58;98760.91;;;24.44;40.10
64294;BME280;50636;45.596;5.258;2022-10-31T13:48:38;98741.03;;;24.26;39.88
64294;BME280;50636;45.596;5.258;2022-10-31T13:51:09;98740.66;;;23.95;40.28
64294;BME280;50636;45.596;5.258;2022-10-31T13:56:54;98737.19;;;23.41;40.82
64294;BME280;50636;45.596;5.258;2022-10-31T13:59:23;98741.31;;;23.28;41.33
64294;BME280;50636;45.596;5.258;2022-10-31T14:02:02;98725.47;;;23.31;41.37
64294;BME280;50636;45.596;5.258;2022-10-31T14:05:02;98737.56;;;23.29;41.48
64294;BME280;50636;45.596;5.258;2022-10-31T14:07:30;98729.91;;;23.17;40.90
64294;BME280;50636;45.596;5.258;2022-10-31T14:13:18;98725.13;;;23.14;40.50
64294;BME280;50636;45.596;5.258;2022-10-31T14:16:05;98736.66;;;23.09;39.56
64294;BME280;50636;45.596;5.258;2022-10-31T14:18:34;98721.97;;;23.07;39.91
64294;BME280;50636;45.596;5.258;2022-10-31T14:21:01;98736.41;;;23.06;40.18
64294;BME280;50636;45.596;5.258;2022-10-31T14:23:40;98719.59;;;23.00;39.42
64294;BME280;50636;45.596;5.258;2022-10-31T14:28:53;98719.34;;;22.97;39.04
64294;BME280;50636;45.596;5.258;2022-10-31T14:31:53;98717.31;;;22.83;39.97
64294;BME280;50636;45.596;5.258;2022-10-31T14:34:22;98721.31;;;22.86;39.75
64294;BME280;50636;45.596;5.258;2022-10-31T14:37:05;98708.75;;;22.86;39.71
64294;BME280;50636;45.596;5.258;2022-10-31T14:45:15;98668.88;;;22.85;39.57
64294;BME280;50636;45.596;5.258;2022-10-31T14:50:27;98694.69;;;23.00;39.70
64294;BME280;50636;45.596;5.258;2022-10-31T14:53:01;98682.44;;;22.93;38.99
64294;BME280;50636;45.596;5.258;2022-10-31T14:55:29;98682.91;;;23.01;39.54
64294;BME280;50636;45.596;5.258;2022-10-31T14:58:00;98692.31;;;22.98;39.20
64294;BME280;50636;45.596;5.258;2022-10-31T15:00:29;98683.47;;;22.98;38.98
64294;BME280;50636;45.596;5.258;2022-10-31T15:03:09;98682.44;;;22.93;38.93
64294;BME280;50636;45.596;5.258;2022-10-31T15:05:46;98682.00;;;22.81;39.36
64294;BME280;50636;45.596;5.258;2022-10-31T15:08:41;98667.06;;;22.80;39.13
64294;BME280;50636;45.596;5.258;2022-10-31T15:11:12;98672.09;;;22.82;39.05
64294;BME280;50636;45.596;5.258;2022-10-31T15:13:49;98668.63;;;22.81;39.36
64294;BME280;50636;45.596;5.258;2022-10-31T15:16:21;98660.09;;;22.79;39.38
64294;BME280;50636;45.596;5.258;2022-10-31T15:18:57;98668.88;;;22.85;39.72
64294;BME280;50636;45.596;5.258;2022-10-31T15:21:25;98668.31;;;22.88;39.59
64294;BME280;50636;45.596;5.258;2022-10-31T15:23:58;98672.56;;;22.94;39.38